Red Deer Regional Airport
CYQF : now visible

Airfield :











YOU CAN JOIN US ON...

 
LOGIN :

Register | Disclaimer

   EN    FR    IT 

 









Legend :    VFR   Marginal VFR   IFR   Intensive IFR   Very Intensive IFR
Visi :
Ceiling :
>= 8 km
>= 3000ft
5 to 8 km
1000 to 3000 ft
1500m to 5 km
500 to 1000 ft
800 to 1500m
200 to 500 ft
< 800m
< 200 ft
Symbols :   Thunderstorms  Fog  Heavy snow  Heavy precipitations  Wind > 20 kt






- Airport Elevation : 2968 ft
- IATA code : YQF


CYQF - Red Deer Regional

CURRENT METAR :
  • 110400Z 34004KT 15SM SCT055CB BKN140 12/10 A2989 RMK CB3AC3 LAST STFD OBS/NXT 111200Z SLP132 DENSITY ALT 3400FT

EXPIRED METARs :
  • 110328Z 03006KT 15SM SCT052CB BKN120 13/09 A2988 RMK CB4AC1 SLP131 DENSITY ALT 3500FT
  • 110303Z 01011KT 15SM -TSRA BKN050CB BKN120 15/09 A2988 RMK CB5AC1 OCNL LTGIC S SLP127 DENSITY ALT 3700FT
  • 110302Z 01011KT 15SM -SHRA BKN050CB BKN120 15/09 A2988 RMK CB5AC1 OCNL LTGIC DIST S SLP127 DENSITY ALT 3700FT
  • 110200Z 03005KT 15SM FEW050 BKN120 18/11 A2985 RMK CU2ACC3 SH DIST W - N SLP118 DENSITY ALT 4100FT

TAF AMD TAF CYQF
Valid from the 11 at 02:00 until the 11 at 12:00 UTC


110200Z 1102/1112 03005KT P6SM FEW050 SCT140 BKN260
TEMPO 1102/1104 P6SM VCTS SCT050CB BKN140
FM110400 30005KT P6SM FEW140 SCT260 RMK NXT FCST BY 110600Z
CZEG FIR / North America



MET'MAP, your aeronautical weather chart ! - Copyright ORBIFLY December 2007 - Disclaimer

ORBIFLY MET'MAP TEAM :

Programming & Development : Alexandra Zaïnal
Concept & original design : Baudouin d'Aumeries
Assistance for programming : Marc-Olivier Méhu
Technical & hardware support : Manuel Goepfert

Contact : metmap@orbifly.com




SOURCES & CREDITS :

   NOAA       Earth
Advisory